Latest Coastal Weather Observations for Walpole North

IDW60701

Issued at 6:23 pm WST Monday 26 September 2016 (issued every 10 minutes, with the page automatically refreshed every 10 minutes)

About coastal observations | Map of coastal stations | Coastal observations for WA | Marine services | Other Formats
Station Details ID: 009998 Name: NORTH WALPOLE Lat: -34.95 Lon: 116.72 Height: 73.0 m
Data from the previous 72 hours. | See also: Recent months at Walpole North
Date/Time
WST
Temp
°C
Wind Pressure Rain since
9am
mm
Weather Cloud Vis
km
Sea
Height
m
Swell
Dir  Spd
kts
Gust
kts
hPa Trend Height
m
Period
s
Dir
26/06:00pm 12.0 WNW 11 17 1013.9 - 2.8 Recent precip. - - - - - -
26/05:30pm 12.8 WNW 8 13 1013.7 - 2.6 - - - - - - -
26/05:00pm 13.1 WNW 8 11 1013.8 - 2.6 - - - - - - -
26/04:30pm 13.1 WNW 9 16 1013.7 - 2.6 - - - - - - -
26/04:00pm 12.8 WNW 9 13 1013.7 - 2.6 - - - - - - -
26/03:30pm 12.6 W 9 12 1013.6 - 2.6 - - - - - - -
26/03:00pm 12.4 WSW 11 19 1013.5 - 2.0 Rain - - - - - -
26/02:30pm 14.2 WNW 16 27 1012.6 - 0.4 - - - - - - -
26/02:00pm 15.3 WNW 16 26 1012.7 - 0.2 - - - - - - -
26/01:36pm 16.0 WNW 18 29 1012.3 - 0.2 - - - - - - -
26/01:30pm 16.6 WNW 15 23 1012.4 - 0.2 - - - - - - -
26/01:00pm 15.9 WNW 18 30 1012.6 - 0.2 - - - - - - -
26/12:31pm 15.5 WNW 15 28 1012.6 - 0.2 - - - - - - -
26/12:30pm 15.6 WNW 15 24 1012.6 - 0.2 - - - - - - -
26/12:00pm 15.6 WNW 19 31 1013.1 - 0.2 - - - - - - -
26/11:34am 16.3 WNW 17 27 1013.1 - 0.2 - - - - - - -
26/11:30am 16.1 WNW 19 27 1012.9 - 0.2 - - - - - - -
26/11:00am 15.1 WNW 15 30 1013.6 - 0.2 - - - - - - -
26/10:58am 14.8 WNW 15 30 1013.5 - 0.2 - - - - - - -
26/10:30am 14.6 NW 16 22 1013.7 - 0.2 - - - - - - -
26/10:18am 14.1 NW 16 26 1013.8 - 0.2 - - - - - - -
26/10:00am 13.7 NW 17 25 1013.9 - 0.2 - - - - - - -
26/09:30am 12.2 NW 14 23 1014.1 - 0.2 - - - - - - -
26/09:00am 11.7 NW 14 19 1014.2 - 0.6 Recent precip. - - - - - -
26/08:30am 10.7 NW 13 19 1014.3 - 0.6 - - - - - - -
26/08:07am 10.7 NW 15 25 1014.3 - 0.2 - - - - - - -
26/08:00am 10.6 NW 16 24 1014.4 - 0.2 - - - - - - -
26/07:30am 10.3 NW 15 22 1014.3 - 0.2 - - - - - - -
26/07:00am 10.3 NW 16 23 1014.4 - 0.2 - - - - - - -
26/06:45am 10.4 NW 15 26 1014.5 - 0.2 - - - - - - -
26/06:30am 10.4 NW 15 24 1014.6 - 0.2 - - - - - - -
26/06:00am 9.9 NW 12 16 1014.3 - 0.2 - - - - - - -
26/05:30am 9.6 NW 11 18 1014.4 - 0.2 - - - - - - -
26/05:00am 10.2 NW 13 18 1014.3 - 0.2 - - - - - - -
26/04:30am 10.4 NW 14 23 1014.3 - 0.2 - - - - - - -
26/04:00am 10.4 NW 14 20 1014.2 - 0.2 - - - - - - -
26/03:30am 10.1 NW 14 20 1014.4 - 0.2 - - - - - - -
26/03:00am 9.7 NW 13 19 1014.7 - 0.2 - - - - - - -
26/02:30am 9.4 NW 12 18 1014.9 - 0.2 - - - - - - -
26/02:00am 9.6 NW 12 17 1015.4 - 0.2 - - - - - - -
26/01:30am 9.4 NW 12 17 1015.8 - 0.2 - - - - - - -
26/01:00am 9.3 NW 11 16 1016.1 - 0.2 - - - - - - -
26/12:30am 9.0 NNW 11 17 1016.1 - 0.2 - - - - - - -
26/12:00am 8.8 NNW 10 14 1016.4 - 0.2 - - - - - - -
 
Date/Time
WST
Temp
°C
Wind Pressure Rain since
9am
mm
Weather Cloud Vis
km
Sea
Height
m
Swell
Dir  Spd
kts
Gust
kts
hPa Trend Height
m
Period
s
Dir
25/11:30pm 9.3 NW 10 14 1017.3 - 0.2 - - - - - - -
25/11:00pm 9.0 NW 8 10 1017.6 - 0.2 - - - - - - -
25/10:30pm 9.0 NW 11 15 1018.0 - 0.2 - - - - - - -
25/10:00pm 9.1 NW 10 14 1018.4 - 0.2 - - - - - - -
25/09:30pm 8.7 NW 10 13 1018.3 - 0.2 - - - - - - -
25/09:00pm 8.7 NNW 9 13 1018.3 - 0.2 - - - - - - -
25/08:30pm 8.6 NNW 9 13 1018.5 - 0.2 - - - - - - -
25/08:00pm 9.1 NNW 9 12 1018.7 - 0.2 - - - - - - -
25/07:30pm 9.1 NW 9 11 1018.7 - 0.2 - - - - - - -
25/07:00pm 8.9 NW 4 8 1018.5 - 0.2 - - - - - - -
25/06:30pm 9.9 NW 5 8 1018.5 - 0.2 - - - - - - -
25/06:00pm 10.0 WNW 5 6 1018.3 - 0.2 - - - - - - -
25/05:30pm 10.6 WNW 6 9 1018.3 - 0.2 - - - - - - -
25/05:00pm 11.8 W 7 11 1018.3 - 0.2 - - - - - - -
25/04:30pm 11.6 WSW 9 14 1018.1 - 0.2 - - - - - - -
25/04:00pm 12.2 WSW 10 16 1017.7 - 0.2 - - - - - - -
25/03:30pm 13.7 SW 8 12 1017.5 - 0.2 - - - - - - -
25/03:00pm 13.4 WSW 10 13 1017.2 - 0.2 - - - - - - -
25/02:30pm 13.2 W 10 18 1017.2 - 0.2 - - - - - - -
25/02:00pm 13.9 WSW 8 13 1017.1 - 0.2 - - - - - - -
25/01:30pm 13.2 WSW 9 14 1017.2 - 0.2 - - - - - - -
25/01:00pm 12.5 SW 9 14 1017.5 - 0.2 - - - - - - -
25/12:30pm 13.3 SW 9 14 1017.8 - 0.2 - - - - - - -
25/12:00pm 13.2 WSW 9 15 1017.8 - 0.2 - - - - - - -
25/11:30am 12.3 SSW 10 19 1017.8 - 0.2 - - - - - - -
25/11:00am 12.1 SW 9 16 1017.9 - 0.2 - - - - - - -
25/10:30am 12.7 SW 11 15 1018.0 - 0.0 - - - - - - -
25/10:00am 12.4 SW 7 13 1017.9 - 0.0 - - - - - - -
25/09:30am 11.3 SW 9 13 1017.7 - 0.0 - - - - - - -
25/09:00am 11.4 SW 10 17 1017.6 - 16.2 - - - - - - -
25/08:30am 11.0 SSW 9 14 1017.3 - 16.2 - - - - - - -
25/08:00am 10.2 SW 7 10 1016.8 - 16.2 - - - - - - -
25/07:30am 9.1 SW 7 11 1016.6 - 16.2 - - - - - - -
25/07:00am 9.1 SW 7 11 1016.4 - 16.0 - - - - - - -
25/06:30am 9.0 SSW 9 13 1016.1 - 16.0 - - - - - - -
25/06:00am 8.7 SW 7 11 1015.5 - 16.0 - - - - - - -
25/05:30am 9.0 SW 8 15 1015.4 - 16.0 - - - - - - -
25/05:00am 8.9 SW 9 14 1015.0 - 16.0 - - - - - - -
25/04:30am 9.3 SW 10 15 1014.6 - 16.0 - - - - - - -
25/04:00am 9.3 SW 8 13 1014.3 - 16.0 - - - - - - -
25/03:30am 9.3 SSW 8 15 1014.1 - 16.0 - - - - - - -
25/03:00am 9.4 SW 9 17 1013.5 - 16.0 - - - - - - -
25/02:30am 8.8 SW 9 16 1013.1 - 16.0 - - - - - - -
25/02:00am 8.8 SSW 8 13 1012.9 - 16.0 - - - - - - -
25/01:30am 9.0 SSW 9 18 1012.8 - 15.6 - - - - - - -
25/01:00am 9.3 SSW 9 16 1012.5 - 15.6 - - - - - - -
25/12:30am 9.5 SSW 7 11 1012.0 - 14.8 - - - - - - -
25/12:00am 9.4 NW 8 11 1011.6 - 11.4 Rain - - - - - -
 
Date/Time
WST
Temp
°C
Wind Pressure Rain since
9am
mm
Weather Cloud Vis
km
Sea
Height
m
Swell
Dir  Spd
kts
Gust
kts
hPa Trend Height
m
Period
s
Dir
24/11:30pm 9.5 NW 10 14 1011.8 - 9.8 - - - - - - -
24/11:00pm 9.4 NW 11 16 1011.8 - 7.8 - - - - - - -
24/10:30pm 9.6 NW 12 16 1011.9 - 6.2 - - - - - - -
24/10:00pm 9.9 NW 11 16 1012.1 - 4.4 - - - - - - -
24/09:30pm 9.9 NNW 7 11 1011.8 - 3.6 - - - - - - -
24/09:00pm 10.0 NW 9 13 1011.9 - 3.6 Recent precip. - - - - - -
24/08:30pm 10.8 WNW 5 8 1012.3 - 2.8 - - - - - - -
24/08:00pm 11.7 NW 10 13 1011.9 - 2.0 - - - - - - -
24/07:30pm 11.2 NNW 7 9 1011.6 - 2.0 - - - - - - -
24/07:00pm 11.2 NNW 6 7 1011.3 - 2.0 - - - - - - -
24/06:30pm 11.0 NNW 6 8 1011.3 - 2.0 - - - - - - -
24/06:00pm 11.8 NNW 5 7 1011.2 - 2.0 - - - - - - -
24/05:30pm 12.5 NW 7 9 1011.2 - 2.0 - - - - - - -
24/05:00pm 12.6 NW 10 14 1011.1 - 2.0 - - - - - - -
24/04:30pm 13.1 NNW 10 15 1011.1 - 2.0 - - - - - - -
24/04:00pm 12.8 NW 9 11 1011.2 - 2.0 - - - - - - -
24/03:30pm 12.5 NNW 9 14 1011.3 - 2.0 - - - - - - -
24/03:00pm 11.1 NW 14 24 1011.4 - 2.0 Rain - - - - - -
24/02:52pm 11.9 WNW 13 24 1011.5 - 1.6 - - - - - - -
24/02:30pm 13.2 NW 8 11 1011.4 - 1.6 - - - - - - -
24/02:00pm 11.3 WNW 10 19 1012.0 - 1.6 - - - - - - -
24/01:30pm 12.9 NW 14 20 1012.2 - 0.2 - - - - - - -
24/01:00pm 14.2 NW 13 17 1012.5 - 0.2 - - - - - - -
24/12:30pm 12.7 WNW 8 14 1012.8 - 0.2 - - - - - - -
24/12:00pm 13.1 NW 11 17 1013.1 - 0.2 Recent precip. - - - - - -
24/11:30am 14.1 NW 8 15 1013.4 - 0.2 - - - - - - -
24/11:00am 12.8 WNW 10 18 1013.8 - 0.0 - - - - - - -
24/10:30am 11.9 WNW 11 16 1014.3 - 0.0 - - - - - - -
24/10:00am 12.0 WNW 14 19 1014.4 - 0.0 - - - - - - -
24/09:30am 11.3 NW 9 13 1014.6 - 0.0 - - - - - - -
24/09:00am 10.3 NNW 8 11 1015.0 - 2.6 - - - - - - -
24/08:30am 9.3 NNW 8 13 1014.9 - 2.6 - - - - - - -
24/08:00am 8.9 NW 11 14 1014.9 - 2.6 - - - - - - -
24/07:30am 8.5 NNW 11 15 1014.7 - 2.6 - - - - - - -
24/07:00am 7.9 NNW 11 16 1014.5 - 2.6 - - - - - - -
24/06:30am 7.2 NNW 8 12 1014.6 - 2.6 - - - - - - -
24/06:00am 7.1 NNW 10 15 1014.5 - 2.6 - - - - - - -
24/05:30am 6.9 NNW 11 15 1014.4 - 2.6 - - - - - - -
24/05:00am 6.9 NW 11 15 1014.3 - 2.6 - - - - - - -
24/04:30am 6.8 NNW 10 16 1014.1 - 2.6 - - - - - - -
24/04:00am 6.8 NW 9 12 1014.4 - 2.6 - - - - - - -
24/03:30am 6.9 NW 10 14 1014.3 - 2.6 - - - - - - -
24/03:00am 6.9 NW 9 13 1014.3 - 2.6 - - - - - - -
24/02:30am 6.6 WNW 4 6 1014.3 - 2.6 - - - - - - -
24/02:00am 6.7 NNW 9 12 1014.4 - 2.6 - - - - - - -
24/01:30am 7.0 NW 10 13 1014.6 - 2.6 - - - - - - -
24/01:00am 6.6 NW 8 10 1014.6 - 2.6 - - - - - - -
24/12:30am 5.9 NW 6 10 1014.8 - 2.6 - - - - - - -
24/12:00am 6.1 WNW 6 9 1014.9 - 2.6 - - - - - - -
 
Date/Time
WST
Temp
°C
Wind Pressure Rain since
9am
mm
Weather Cloud Vis
km
Sea
Height
m
Swell
Dir  Spd
kts
Gust
kts
hPa Trend Height
m
Period
s
Dir
23/11:30pm 6.0 NW 4 7 1015.0 - 2.6 - - - - - - -
23/11:00pm 6.2 NW 5 6 1015.3 - 2.6 - - - - - - -
23/10:30pm 6.1 NW 1 3 1015.6 - 2.6 - - - - - - -
23/10:00pm 6.6 NW 5 8 1015.8 - 2.6 - - - - - - -
23/09:30pm 6.4 WNW 3 6 1015.9 - 2.6 - - - - - - -
23/09:00pm 7.0 WNW 5 7 1015.8 - 2.6 - - - - - - -
23/08:30pm 6.9 NW 6 8 1015.9 - 2.6 - - - - - - -
23/08:00pm 6.8 NW 5 6 1015.8 - 2.6 - - - - - - -
23/07:30pm 7.5 WNW 6 12 1015.7 - 2.0 - - - - - - -
23/07:00pm 7.2 WNW 5 7 1015.3 - 1.8 - - - - - - -
23/06:30pm 7.2 WNW 5 6 1015.2 - 1.8 - - - - - - -

Other Formats:

Comma delimited format used in spreadsheet applications
http://www.bom.gov.au/fwo/IDW60701/IDW60701.95647.axf

JavaScript Object Notation format (JSON) in row-major order
http://www.bom.gov.au/fwo/IDW60701/IDW60701.95647.json